Boulder City, Nevada Weather observations

Data are for observation ending at time listed.
 Day   Time    Ave.   Ave.  Ave.  Vector   Max.   Stn.    Total    Solar   Ave.  
  of    of     Air    Rel.  Wind   Wind    Wind   Baro.  Precip.   Rad.    Soil  
Year   Day     Temp.  Hum.  Speed  Dir.    Gust   Pres.                    Temp. 
2016   (PST)    F      %     mph   deg.    mph     mb.     in.     W/m2     F   
------------------------------------------------------------------------------
 240   21:30   76.6    38    1.0   217      1.7   932.2    0.00       0    90.1
 240   21:40   76.5    37    1.2   239      1.9   932.2    0.00       0    90.0
 240   21:50   76.5    37    1.0   233      2.0   932.3    0.00       0    89.8
 240   22:00   76.8    36    1.0   227      1.7   932.4    0.00       0    89.7
 240   22:10   77.2    35    1.1   233      2.2   932.4    0.00       0    89.5
 240   22:20   77.3    34    0.6   258      1.8   932.5    0.00       0    89.4
 240   22:30   77.3    35    1.2   212      2.2   932.5    0.00       0    89.3
 240   22:40   77.0    35    1.3   248      3.3   932.5    0.00       0    89.2
 240   22:50   77.0    34    1.9   223      2.9   932.6    0.00       0    89.0
 240   23:00   76.2    36    1.7   226      2.4   932.6    0.00       0    88.9
 240   23:10   75.5    38    2.0   231      2.6   932.6    0.00       0    88.8
 240   23:20   75.9    36    1.9   239      2.9   932.5    0.00       0    88.6
 240   23:30   75.5    37    2.0   217      3.2   932.5    0.00       0    88.5
 240   23:40   74.8    38    2.2   212      3.0   932.5    0.00       0    88.4
 240   23:50   74.8    38    2.2   210      2.9   932.5    0.00       0    88.3
 241    0:00   74.5    39    2.1   213      3.0   932.6    0.00       0    88.2
 241    0:10   74.2    39    1.6   209      2.1   932.6    0.00       0    88.0
 241    0:20   74.1    39    1.6   213      2.3   932.6    0.00       0    87.9
 241    0:30   74.1    39    1.5   239      2.0   932.5    0.00       0    87.8
 241    0:40   73.9    39    1.4   256      1.9   932.5    0.00       0    87.7
 241    0:50   73.4    40    1.3   217      1.9   932.5    0.00       0    87.6
 241    1:00   73.1    41    2.1   208      2.8   932.6    0.00       0    87.5
 241    1:10   72.8    42    1.8   229      2.7   932.6    0.00       0    87.3
 241    1:20   73.0    41    1.5   218      2.1   932.7    0.00       0    87.2
 241    1:30   72.6    42    1.9   215      2.6   932.7    0.00       0    87.1
 241    1:40   72.5    42    1.8   207      2.6   932.7    0.00       0    87.0
 241    1:50   72.5    42    1.8   208      2.3   932.7    0.00       0    86.9
 241    2:00   72.5    42    2.0   213      2.6   932.7    0.00       0    86.8
 241    2:10   72.3    42    1.4   222      2.2   932.8    0.00       0    86.7
 241    2:20   72.1    43    1.3   227      2.0   932.9    0.00       0    86.6
 241    2:30   72.1    43    1.6   239      2.2   932.9    0.00       0    86.5
 241    2:40   71.9    43    1.6   213      2.6   932.9    0.00       0    86.4
 241    2:50   72.0    43    1.1   237      2.7   933.0    0.00       0    86.3
 241    3:00   71.9    43    0.3   251      1.8   932.9    0.00       0    86.2
 241    3:10   72.2    42    0.6   287      1.7   933.0    0.00       0    86.1
 241    3:20   71.9    44    1.2   194      1.9   933.0    0.00       0    86.0
 241    3:30   71.7    44    1.3   217      2.8   933.1    0.00       0    85.9
 241    3:40   72.0    44    0.4   162      1.7   933.1    0.00       0    85.8
 241    3:50   72.2    45    0.4    33      2.4   933.1    0.00       0    85.7
 241    4:00   72.4    45    0.5     2      2.0   933.1    0.00       0    85.6
 241    4:10   72.4    46    0.8    19      2.8   933.2    0.00       0    85.6
 241    4:20   72.4    46    0.1    24      1.6   933.2    0.00       0    85.4
 241    4:30   72.1    46    0.3     8      1.7   933.2    0.00       0    85.4
 241    4:40   71.8    47    2.5   213      4.5   933.3    0.00       0    85.3
 241    4:50   72.1    46    1.8   220      3.1   933.4    0.00       0    85.2
 241    5:00   71.4    47    2.3   217      3.2   933.4    0.00       0    85.1
 241    5:10   71.4    46    2.5   220      3.6   933.5    0.00       3    85.0
 241    5:20   71.2    47    2.3   224      3.1   933.7    0.00       6    84.9
 241    5:30   70.9    48    2.2   211      3.3   933.8    0.00      20    84.8
 241    5:40   71.0    48    2.0   205      3.1   933.9    0.00      49    84.7
 241    5:50   72.4    46    0.9   230      2.0   934.0    0.00      79    84.6
 241    6:00   74.7    44    0.6    55      1.5   934.1    0.00     109    84.5
 241    6:10   77.8    40    0.2    89      1.2   934.3    0.00     139    84.5
 241    6:20   78.7    40    1.1    19      2.6   934.6    0.00     171    84.4
 241    6:30   78.4    41    1.7    18      3.4   934.7    0.00     203    84.3
 241    6:40   78.1    41    2.5    19      4.4   934.9    0.00     236    84.2
 241    6:50   78.6    41    2.1    21      5.4   935.1    0.00     270    84.2
 241    7:00   79.1    41    2.6    24      5.4   935.3    0.00     305    84.1
 241    7:10   79.7    41    2.5    36      5.0   935.4    0.00     339    84.1
 241    7:20   79.7    41    2.6    30      5.2   935.5    0.00     372    84.1
 241    7:30   80.3    40    2.7    29      6.0   935.7    0.00     404    84.1
 241    7:40   80.2    38    3.4    22      6.7   935.8    0.00     437    84.1
 241    7:50   80.3    37    4.3    24      8.3   935.9    0.00     469    84.2
 241    8:00   80.5    38    4.4    21      9.3   935.9    0.00     500    84.3
 241    8:10   80.6    38    4.6    17     11.3   936.0    0.00     530    84.4
 241    8:20   81.2    37    4.0    19      8.3   936.1    0.00     560    84.5
 241    8:30   81.6    36    4.2    24      7.7   936.2    0.00     589    84.6
 241    8:40   81.8    36    3.6    31      9.4   936.3    0.00     616    84.8
 241    8:50   82.3    34    3.4    28      7.7   936.4    0.00     642    85.0
 241    9:00   83.2    34    3.3    20      6.8   936.4    0.00     666    85.2
 241    9:10   82.9    34    4.1    23      9.2   936.5    0.00     690    85.4
 241    9:20   82.8    34    4.2    25      8.2   936.5    0.00     712    85.7
 241    9:30   83.0    34    4.5    14      8.3   936.5    0.00     708    85.9
 241    9:40   83.8    33    4.3    24      8.6   936.5    0.00     693    86.2
 241    9:50   84.4    32    3.6    39      7.4   936.5    0.00     267    86.5
 241   10:00   84.4    32    3.7    35      8.3   936.5    0.00     205    86.9
 241   10:10   85.1    31    3.5    28      7.8   936.5    0.00     630    87.2
 241   10:20   85.6    31    3.9    21      8.2   936.5    0.00     439    87.5
 241   10:30   85.7    31    3.8    24      8.0   936.5    0.00     580    87.9
 241   10:40   86.1    30    4.1    21      9.8   936.4    0.00     738    88.3
 241   10:50   86.1    29    3.9     1      7.8   936.3    0.00     836    88.7
 241   11:00   86.4    29    4.0    17      8.3   936.3    0.00     784    89.1
 241   11:10   87.5    28    3.7    18      7.5   936.2    0.00     797    89.5
 241   11:20   87.1    28    3.4    22      8.2   936.1    0.00     782    89.9
 241   11:30   87.8    26    3.2     1      8.2   936.0    0.00     864    90.3
 241   11:40   88.6    26    3.1    28      7.2   935.9    0.00     873    90.6
 241   11:50   88.7    26    3.3    29      7.9   935.7    0.00     873    91.0
 241   12:00   89.8    24    3.1    24      8.5   935.7    0.00     871    91.4
 241   12:10   89.8    24    2.7    34      7.5   935.6    0.00     867    91.8
 241   12:20   90.7    23    3.0    22      9.6   935.5    0.00     863    92.2
 241   12:30   90.4    23    2.9   349      7.2   935.5    0.00     856    92.6
 241   12:40   90.3    23    3.1    31      7.2   935.5    0.00     847    93.0
 241   12:50   91.0    23    3.3    27      7.9   935.4    0.00     838    93.4
 241   13:00   90.8    23    3.3    49      6.9   935.3    0.00     826    93.7
 241   13:10   91.8    22    2.4    26      6.7   935.2    0.00     813    94.1
 241   13:20   92.8    21    2.7    80      8.9   935.0    0.00     798    94.4
 241   13:30   93.7    20    2.2    12      7.6   935.0    0.00     783    94.7
 241   13:40   92.6    21    2.0    18      7.5   935.0    0.00     766    95.1
 241   13:50   92.9    21    3.8    18      9.2   934.9    0.00     747    95.4
 241   14:00   93.5    21    3.1    27      7.1   934.7    0.00     729    95.7
 241   14:10   93.6    20    3.8    23      8.1   934.7    0.00     707    96.0
 241   14:20   93.7    20    3.8    28      9.7   934.6    0.00     684    96.3
 241   14:30   94.0    19    3.6    21      7.5   934.5    0.00     660    96.5
 241   14:40   94.6    18    4.4     9      9.0   934.4    0.00     635    96.7
 241   14:50   94.2    19    3.9    23      8.7   934.3    0.00     607    96.9
 241   15:00   94.2    18    3.9    25      7.9   934.3    0.00     577    97.1
 241   15:10   94.4    18    3.1    38      8.6   934.2    0.00     548    97.3
 241   15:20   94.5    18    4.2    10      8.5   934.2    0.00     519    97.4
 241   15:30   94.9    18    3.5    22      7.8   934.0    0.00     488    97.5
 241   15:40   94.7    17    3.5    12      7.2   934.0    0.00     457    97.6
 241   15:50   94.9    17    3.5    13      7.3   934.0    0.00     423    97.6
 241   16:00   94.9    17    2.9    14      6.7   933.9    0.00     390    97.7
 241   16:10   95.0    17    3.3     4      8.6   933.8    0.00     357    97.6
 241   16:20   94.7    17    3.2    21      8.2   933.7    0.00     324    97.5
 241   16:30   94.4    18    4.0    12      7.7   933.7    0.00     291    97.4
 241   16:40   94.5    18    3.0     7      6.1   933.6    0.00     257    97.3
 241   16:50   94.6    18    2.6    10      6.3   933.5    0.00     223    97.2
 241   17:00   94.6    18    1.8   354      4.2   933.5    0.00     190    97.1
 241   17:10   94.2    18    2.8     9      6.4   933.4    0.00     160    97.0
 241   17:20   94.0    18    2.2     1      4.3   933.4    0.00     130    96.9
 241   17:30   93.1    19    2.0     2      4.5   933.2    0.00     100    96.8
 241   17:40   91.6    20    1.5    13      3.9   933.1    0.00      49    96.7
 241   17:50   90.8    20    1.1   358      2.5   933.0    0.00      19    96.5
 241   18:00   90.0    22    0.3   353      1.2   932.9    0.00      14    96.3
 241   18:10   89.1    21    0.2   300      1.1   932.9    0.00       8    96.2
 241   18:20   88.9    21    1.3   250      1.9   932.8    0.00       3    96.0
 241   18:30   88.5    21    1.5   259      2.0   932.8    0.00       0    95.8
 241   18:40   87.7    22    0.9   271      2.1   932.7    0.00       0    95.6
 241   18:50   86.8    22    0.2   256      1.1   932.7    0.00       0    95.4
 241   19:00   86.1    22    0.7   229      2.0   932.7    0.00       0    95.2
 241   19:10   85.7    22    2.2   204      2.9   932.7    0.00       0    95.0
 241   19:20   85.4    23    2.6   222      3.4   932.6    0.00       0    94.8
 241   19:30   85.5    22    2.1   228      3.1   932.7    0.00       0    94.6
 241   19:40   85.1    22    2.9   216      3.8   932.8    0.00       0    94.4
 241   19:50   84.8    22    3.0   222      3.7   932.9    0.00       0    94.2
 241   20:00   84.3    23    2.9   202      3.7   932.9    0.00       0    94.0
 241   20:10   83.6    24    3.0   202      3.9   933.0    0.00       0    93.8
 241   20:20   83.2    24    2.7   204      3.4   933.0    0.00       0    93.6
 241   20:30   82.7    24    2.5   205      4.0   932.9    0.00       0    93.4
 241   20:40   83.9    23    2.7   229      3.8   932.9    0.00       0    93.2
 241   20:50   83.7    23    2.7   206      3.7   932.9    0.00       0    93.0
 241   21:00   82.9    24    2.7   205      3.4   932.9    0.00       0    92.8
 241   21:10   82.2    24    2.1   200      3.2   932.9    0.00       0    92.7
 241   21:20   82.8    24    2.7   209      3.8   932.9    0.00       0    92.5

Return to Boulder City, Nevada graphs page.


Western Regional Climate Center,wrcc@dri.edu